Página principal
METAR-TAF:

METAR-TAF

Aeroportos :

Aeroporto Internacional Jomo Kenyatta

Nairobi, Quénia

latitude: 01-19S, longitude: 036-55E, altura: 1624 m

Observação actual do tempo

O boletim foi feito há 1 hora e 17 minutos, às 11:00 UTC
Vento 7 kt de este
Temperatura 24°C
Humidade 47%
Pressão 1020 hPa
Visibilidade 10 km ou mais
Nuvens fragmentadasa uma altura de 2700 ft

METAR: HKJK 301100Z 08007KT 9999 BKN027 24/12 Q1020 NOSIG

Hora: 15:17 (12:17 UTC)

Previsão

O boletim foi feito há 1 hora e 17 minutos, às 11:00 UTC
Previsão válida de 30 às 12 UTC a 01 às 18 UTC
Vento 6 kt de es-sudeste
Visibilidade 10 km ou mais
Nuvens fragmentadasa uma altura de 2600 ft
Tornando-se
de 30 às 20 UTC a 30 às 23 UTC
Nuvens fragmentadasa uma altura de 1800 ft
Tornando-se
de 01 às 08 UTC a 01 às 11 UTC
Vento 10 kt de sudeste
Nuvens dispersasa uma altura de 2800 ft

TAF: HKJK 301100Z 3012/0118 11006KT 9999 BKN026 BECMG 3020/3023 06005K T BKN018 BECMG 0108/0111 14010KT SCT028

Observações e previsões do tempo de mais de 4000 aeroportos (mensagens METAR e TAF).

As estações disponíveis são os pontos amarelos e vermelhos sobre o mapa.

Mova o rato sobre o mapa para ver o nome da estação.

Depois clique no ponto para visualizar as observações e previsões meteorológicas.

Para alterar o mapa : clique nos botões verdes com uma cruz preta para aumentar o zoom; no botão verde com uma pitada de zoom; ou nas setas verdes para mapas adjacentes.


METAR-TAF: